Time;durP1;ratioP1;P1;durP2;ratioP2;P2;SDS_P1;SDS_P2;PMS_P1;PMS_P2;Temp;Humidity;BMP_temperature;BMP_pressure;BME280_temperature;BME280_humidity;BME280_pressure;Samples;Min_cycle;Max_cycle;Signal;HPM_P1;HPM_P2
2023/07/01 00:00:31;;;;;;;7.60;5.20;;;;;;;17.38;72.99;98520.02;107065;1258;72822;-40
2023/07/01 00:02:59;;;;;;;6.50;5.10;;;;;;;17.35;73.01;98518.11;107066;1257;60204;-38
2023/07/01 00:05:27;;;;;;;9.60;5.60;;;;;;;17.31;73.07;98524.08;107069;1260;60515;-39
2023/07/01 00:07:54;;;;;;;7.10;5.40;;;;;;;17.25;73.19;98523.35;106984;1259;72646;-38
2023/07/01 00:10:24;;;;;;;12.50;5.50;;;;;;;17.19;73.46;98523.15;107020;1257;67599;-39
2023/07/01 00:12:52;;;;;;;7.10;5.20;;;;;;;17.17;73.62;98526.50;107022;1259;72674;-39
2023/07/01 00:15:20;;;;;;;7.20;5.10;;;;;;;17.16;73.89;98526.59;107094;1262;60401;-39
2023/07/01 00:17:47;;;;;;;8.70;5.60;;;;;;;17.16;74.04;98526.73;107084;1257;60431;-39
2023/07/01 00:20:16;;;;;;;7.50;5.50;;;;;;;17.16;74.31;98526.27;107015;1260;73912;-39
2023/07/01 00:22:43;;;;;;;5.60;5.00;;;;;;;17.19;74.31;98525.20;107139;1260;66299;-39
2023/07/01 00:25:11;;;;;;;7.60;5.30;;;;;;;17.24;74.35;98523.92;107091;1257;71400;-39
2023/07/01 00:27:38;;;;;;;5.90;5.30;;;;;;;17.28;74.16;98522.40;107156;1257;60296;-39
2023/07/01 00:30:07;;;;;;;8.30;5.70;;;;;;;17.32;74.09;98521.56;107216;1257;60408;-39
2023/07/01 00:32:35;;;;;;;12.20;5.40;;;;;;;17.30;73.75;98516.27;107181;1257;72880;-39
2023/07/01 00:35:03;;;;;;;10.30;5.30;;;;;;;17.31;73.84;98515.16;107187;1257;67917;-39
2023/07/01 00:37:31;;;;;;;4.70;4.20;;;;;;;17.36;74.04;98519.17;107212;1260;71377;-39
2023/07/01 00:39:59;;;;;;;10.20;5.50;;;;;;;17.44;73.93;98517.45;107226;1260;60366;-39
2023/07/01 00:42:26;;;;;;;7.80;5.70;;;;;;;17.51;73.66;98520.58;107210;1257;60498;-39
2023/07/01 00:44:54;;;;;;;5.80;5.30;;;;;;;17.57;73.41;98515.99;107086;1258;73837;-39
2023/07/01 00:47:21;;;;;;;6.50;4.70;;;;;;;17.60;73.23;98517.11;107200;1262;68286;-39
2023/07/01 00:49:50;;;;;;;6.00;4.90;;;;;;;17.65;73.15;98519.50;107181;1260;71384;-39
2023/07/01 00:52:18;;;;;;;5.70;4.90;;;;;;;17.73;72.87;98519.55;107175;1258;60431;-39
2023/07/01 00:54:45;;;;;;;7.40;5.20;;;;;;;17.78;72.61;98515.05;107025;1257;60483;-39
2023/07/01 00:57:13;;;;;;;7.40;5.80;;;;;;;17.79;72.40;98513.61;107008;1257;73809;-39
2023/07/01 00:59:41;;;;;;;5.90;5.00;;;;;;;17.79;72.53;98515.25;107194;1257;67569;-39
2023/07/01 01:02:35;;;;;;;5.80;5.10;;;;;;;17.76;72.51;98512.27;106946;1257;72657;-39
2023/07/01 01:05:10;;;;;;;7.10;5.10;;;;;;;17.71;72.27;98512.00;107150;1257;61725;-39
2023/07/01 01:07:50;;;;;;;8.10;4.90;;;;;;;17.65;72.60;98513.56;107169;1257;60425;-39
2023/07/01 01:10:22;;;;;;;10.20;5.30;;;;;;;17.54;72.72;98513.07;107001;1260;73893;-39
2023/07/01 01:13:16;;;;;;;8.90;5.30;;;;;;;17.40;72.94;98512.05;107062;1257;66313;-39
2023/07/01 01:15:43;;;;;;;8.70;5.10;;;;;;;17.29;73.18;98510.51;106961;1260;72687;-39
2023/07/01 01:18:11;;;;;;;5.60;4.90;;;;;;;17.23;73.22;98510.84;106949;1258;61898;-39
2023/07/01 01:20:39;;;;;;;7.80;5.30;;;;;;;17.21;73.37;98512.00;107136;1256;60344;-38
2023/07/01 01:23:14;;;;;;;9.70;5.30;;;;;;;17.15;73.61;98516.44;107013;1257;73874;-38
2023/07/01 01:26:01;;;;;;;7.80;5.10;;;;;;;17.06;74.10;98521.01;107243;1257;66266;-39
2023/07/01 01:28:29;;;;;;;7.10;5.40;;;;;;;16.97;74.50;98519.79;106992;1257;72803;-39
2023/07/01 01:30:58;;;;;;;9.00;5.30;;;;;;;16.94;74.75;98519.67;106951;1258;60455;-39
2023/07/01 01:33:26;;;;;;;6.60;5.00;;;;;;;16.96;74.80;98519.55;107161;1262;60313;-39
2023/07/01 01:36:17;;;;;;;8.60;5.20;;;;;;;16.92;75.03;98515.10;107211;1260;73837;-38
2023/07/01 01:38:45;;;;;;;6.10;5.50;;;;;;;16.85;75.41;98512.66;107079;1257;66430;-39
2023/07/01 01:41:29;;;;;;;9.80;5.00;;;;;;;16.76;75.73;98514.33;107030;1257;71236;-39
2023/07/01 01:44:10;;;;;;;9.00;5.20;;;;;;;16.77;75.84;98521.36;107208;1257;60433;-39
2023/07/01 01:46:38;;;;;;;7.00;5.30;;;;;;;16.77;75.91;98517.84;107143;1260;60319;-39
2023/07/01 01:49:08;;;;;;;8.70;5.50;;;;;;;16.75;75.99;98517.02;106972;1258;73390;-38
2023/07/01 01:51:36;;;;;;;6.70;5.70;;;;;;;16.76;76.09;98515.75;107075;1258;66211;-38
2023/07/01 01:54:04;;;;;;;9.20;5.10;;;;;;;16.76;76.17;98522.38;107020;1260;72721;-39
2023/07/01 01:56:32;;;;;;;7.40;5.10;;;;;;;16.81;75.89;98525.73;107218;1260;61646;-39
2023/07/01 01:59:00;;;;;;;8.90;5.10;;;;;;;16.84;75.68;98522.38;106980;1259;60058;-39
2023/07/01 02:01:28;;;;;;;8.60;5.30;;;;;;;16.88;75.65;98524.64;106988;1258;72560;-39
2023/07/01 02:03:56;;;;;;;7.80;5.80;;;;;;;16.91;75.65;98522.16;107093;1260;68082;-39
2023/07/01 02:06:24;;;;;;;8.00;5.10;;;;;;;16.93;75.53;98525.09;107179;1257;71740;-38
2023/07/01 02:08:52;;;;;;;7.20;5.20;;;;;;;16.95;75.37;98527.41;107020;1260;60520;-39
2023/07/01 02:11:19;;;;;;;5.70;5.00;;;;;;;16.99;75.21;98523.73;107216;1261;60306;-39
2023/07/01 02:13:47;;;;;;;10.30;5.20;;;;;;;17.04;75.17;98529.73;107128;1260;73487;-39
2023/07/01 02:16:15;;;;;;;9.90;5.10;;;;;;;17.09;75.36;98528.38;107127;1260;67611;-39
2023/07/01 02:18:42;;;;;;;8.40;5.50;;;;;;;17.12;75.23;98529.73;107239;1260;72680;-39
2023/07/01 02:21:10;;;;;;;5.80;5.00;;;;;;;17.15;75.18;98532.95;107157;1262;60390;-39
2023/07/01 02:23:37;;;;;;;6.50;4.80;;;;;;;17.22;75.03;98526.84;107161;1258;60261;-39
2023/07/01 02:26:06;;;;;;;5.60;4.60;;;;;;;17.31;74.86;98531.59;107189;1257;73937;-39
2023/07/01 02:28:34;;;;;;;5.80;4.90;;;;;;;17.40;74.48;98531.94;107210;1257;67059;-39
2023/07/01 02:31:03;;;;;;;5.80;5.20;;;;;;;17.48;74.17;98537.55;107174;1257;72670;-39
2023/07/01 02:33:31;;;;;;;6.00;4.80;;;;;;;17.55;73.99;98532.23;107086;1257;59517;-39
2023/07/01 02:35:58;;;;;;;8.80;5.10;;;;;;;17.61;73.82;98539.55;107227;1257;60312;-39
2023/07/01 02:38:26;;;;;;;5.90;4.70;;;;;;;17.67;73.47;98538.02;107062;1261;73907;-39
2023/07/01 02:40:54;;;;;;;7.30;5.10;;;;;;;17.75;73.37;98536.19;107200;1257;66289;-38
2023/07/01 02:43:21;;;;;;;6.10;4.60;;;;;;;17.81;73.52;98529.23;107209;1257;72831;-38
2023/07/01 02:45:49;;;;;;;6.30;5.00;;;;;;;17.85;73.29;98532.21;107202;1257;61070;-38
2023/07/01 02:48:16;;;;;;;8.10;5.00;;;;;;;17.83;72.57;98533.65;107245;1257;60267;-39
2023/07/01 02:50:44;;;;;;;7.10;5.10;;;;;;;17.74;72.09;98538.00;107198;1257;73850;-39
2023/07/01 02:53:12;;;;;;;6.10;4.90;;;;;;;17.68;72.18;98532.98;107268;1257;67735;-39
2023/07/01 02:55:40;;;;;;;8.40;5.30;;;;;;;17.69;72.25;98534.61;107096;1261;72799;-39
2023/07/01 02:58:08;;;;;;;6.90;5.00;;;;;;;17.71;72.11;98537.69;107213;1257;60491;-39
2023/07/01 03:00:35;;;;;;;7.40;5.10;;;;;;;17.68;72.12;98538.94;107102;1259;60329;-39
2023/07/01 03:03:06;;;;;;;6.40;5.30;;;;;;;17.58;72.29;98543.38;107092;1257;72649;-39
2023/07/01 03:05:35;;;;;;;7.60;4.90;;;;;;;17.48;72.84;98547.91;107271;1260;66388;-39
2023/07/01 03:08:06;;;;;;;6.80;5.00;;;;;;;17.39;73.29;98554.20;107171;1262;71852;-39
2023/07/01 03:10:34;;;;;;;5.20;4.70;;;;;;;17.35;73.74;98551.69;107177;1258;61086;-39
2023/07/01 03:13:02;;;;;;;5.80;5.10;;;;;;;17.36;74.09;98550.12;107153;1257;60417;-39
2023/07/01 03:15:29;;;;;;;6.50;4.90;;;;;;;17.37;74.33;98551.57;107051;1258;73829;-39
2023/07/01 03:17:57;;;;;;;6.50;4.90;;;;;;;17.40;74.58;98555.90;107060;1257;67611;-39
2023/07/01 03:20:25;;;;;;;5.50;4.90;;;;;;;17.43;74.83;98552.48;107121;1257;70839;-39
2023/07/01 03:22:59;;;;;;;5.30;4.70;;;;;;;17.47;74.74;98549.57;107182;1258;61806;-39
2023/07/01 03:25:38;;;;;;;6.50;4.40;;;;;;;17.54;74.75;98550.56;107174;1258;60330;-39
2023/07/01 03:28:25;;;;;;;6.30;4.90;;;;;;;17.65;74.87;98554.41;106987;1262;73942;-40
2023/07/01 03:30:59;;;;;;;5.00;4.40;;;;;;;17.73;74.70;98554.73;107213;1257;67679;-46
2023/07/01 03:33:41;;;;;;;7.20;5.00;;;;;;;17.81;74.60;98556.02;102335;1257;6308728;-39
2023/07/01 03:37:51;;;;;;;8.50;5.20;;;;;;;17.88;74.67;98555.63;104124;1292;601222;-38
2023/07/01 03:40:19;;;;;;;5.40;4.50;;;;;;;17.94;74.49;98557.23;106573;1266;61731;-38
2023/07/01 03:42:56;;;;;;;6.70;5.10;;;;;;;18.01;74.52;98559.16;106728;1265;60347;-40
2023/07/01 03:46:10;;;;;;;8.10;5.70;;;;;;;18.04;74.70;98560.58;106692;1269;73569;-39
2023/07/01 03:48:38;;;;;;;8.20;5.70;;;;;;;18.01;74.92;98557.77;106564;1266;67575;-39
2023/07/01 03:51:05;;;;;;;9.60;5.10;;;;;;;18.01;74.82;98561.98;106421;1264;208949;-39
2023/07/01 03:53:33;;;;;;;6.20;5.20;;;;;;;18.05;74.99;98564.71;106679;1264;60702;-39
2023/07/01 03:56:01;;;;;;;6.40;5.40;;;;;;;18.10;74.97;98562.23;106745;1264;59398;-38
2023/07/01 03:58:28;;;;;;;5.80;5.20;;;;;;;18.15;74.93;98562.90;106765;1267;70996;-38
2023/07/01 04:00:56;;;;;;;5.00;4.60;;;;;;;18.17;75.04;98563.63;106716;1264;67609;-39
2023/07/01 04:03:24;;;;;;;5.80;5.20;;;;;;;18.22;74.88;98561.00;106785;1264;72998;-39
2023/07/01 04:05:52;;;;;;;8.00;5.30;;;;;;;18.30;74.87;98560.89;106729;1268;61708;-39
2023/07/01 04:08:20;;;;;;;5.40;4.90;;;;;;;18.38;74.76;98558.63;106693;1264;60044;-39
2023/07/01 04:10:48;;;;;;;6.20;4.90;;;;;;;18.46;74.41;98561.88;106733;1264;73060;-39
2023/07/01 04:13:16;;;;;;;5.80;5.00;;;;;;;18.52;74.56;98564.27;106797;1264;67565;-39
2023/07/01 04:15:43;;;;;;;5.50;4.50;;;;;;;18.55;74.14;98566.46;106794;1264;71490;-39
2023/07/01 04:18:11;;;;;;;5.90;5.20;;;;;;;18.60;74.14;98563.67;106724;1265;61702;-39
2023/07/01 04:20:40;;;;;;;7.20;5.20;;;;;;;18.69;74.04;98568.61;106782;1264;59692;-39
2023/07/01 04:23:07;;;;;;;8.80;5.20;;;;;;;18.76;73.90;98569.06;106797;1263;71863;-39
2023/07/01 04:25:38;;;;;;;9.00;5.40;;;;;;;18.79;73.96;98567.80;106912;1262;67652;-39
2023/07/01 04:28:08;;;;;;;5.50;4.90;;;;;;;18.82;73.68;98566.92;106819;1263;73006;-38
2023/07/01 04:30:35;;;;;;;6.70;5.00;;;;;;;18.90;73.76;98572.21;106665;1265;62032;-38
2023/07/01 04:33:03;;;;;;;6.80;5.10;;;;;;;18.99;73.53;98572.89;106733;1263;60018;-38
2023/07/01 04:35:31;;;;;;;7.30;5.40;;;;;;;19.04;73.53;98569.39;106675;1265;73126;-38
2023/07/01 04:37:58;;;;;;;7.50;5.80;;;;;;;19.07;73.52;98572.27;106695;1263;67646;-38
2023/07/01 04:40:26;;;;;;;6.20;4.60;;;;;;;19.09;73.34;98571.05;106694;1264;72678;-38
2023/07/01 04:42:54;;;;;;;6.20;4.50;;;;;;;19.14;73.21;98574.14;106742;1264;60471;-38
2023/07/01 04:45:22;;;;;;;5.60;4.70;;;;;;;19.22;73.51;98572.40;106736;1266;60023;-38
2023/07/01 04:47:49;;;;;;;7.60;5.20;;;;;;;19.31;73.18;98571.44;106737;1263;73023;-39
2023/07/01 04:50:20;;;;;;;6.40;5.20;;;;;;;19.37;72.93;98563.95;106634;1263;66894;-39
2023/07/01 04:52:48;;;;;;;6.50;4.80;;;;;;;19.45;72.83;98565.23;106625;1263;73024;-39
2023/07/01 04:55:15;;;;;;;5.60;5.00;;;;;;;19.58;72.55;98567.91;106702;1263;61838;-38
2023/07/01 04:57:43;;;;;;;7.30;6.00;;;;;;;19.68;72.07;98566.53;106739;1264;59606;-38
2023/07/01 05:00:12;;;;;;;7.20;5.50;;;;;;;19.74;71.69;98565.46;106747;1264;73097;-38
2023/07/01 05:02:40;;;;;;;8.50;5.60;;;;;;;19.77;71.17;98566.09;106766;1266;67945;-38
2023/07/01 05:05:09;;;;;;;6.60;5.40;;;;;;;19.79;70.50;98564.77;106615;1266;72718;-38
2023/07/01 05:07:36;;;;;;;6.50;5.20;;;;;;;19.78;70.70;98567.92;106702;1263;60411;-38
2023/07/01 05:10:05;;;;;;;8.50;5.20;;;;;;;19.83;70.84;98566.11;106710;1266;59506;-39
2023/07/01 05:12:34;;;;;;;8.10;5.30;;;;;;;19.91;70.66;98569.58;106756;1263;73155;-39
2023/07/01 05:15:11;;;;;;;5.80;5.30;;;;;;;19.98;70.86;98572.24;106656;1268;66541;-39
2023/07/01 05:17:42;;;;;;;6.80;5.80;;;;;;;20.07;70.25;98576.06;106697;1265;72830;-38
2023/07/01 05:20:10;;;;;;;8.00;5.90;;;;;;;20.10;69.94;98575.48;106670;1265;60311;-39
2023/07/01 05:22:38;;;;;;;6.30;5.50;;;;;;;20.13;69.95;98575.53;106669;1264;59253;-38
2023/07/01 05:25:06;;;;;;;7.60;5.20;;;;;;;20.19;69.98;98574.95;106604;1264;72433;-37
2023/07/01 05:27:34;;;;;;;6.20;5.20;;;;;;;20.28;69.50;98570.66;106651;1263;67981;-38
2023/07/01 05:30:01;;;;;;;8.20;5.70;;;;;;;20.37;69.62;98569.12;106633;1265;71191;-38
2023/07/01 05:32:29;;;;;;;7.00;5.80;;;;;;;20.45;69.83;98569.96;106705;1264;60244;-38
2023/07/01 05:34:57;;;;;;;6.70;5.60;;;;;;;20.54;69.45;98571.40;106757;1266;60041;-38
2023/07/01 05:37:24;;;;;;;7.00;4.80;;;;;;;20.64;69.04;98569.94;106673;1264;73093;-39
2023/07/01 05:39:52;;;;;;;6.00;4.80;;;;;;;20.78;68.95;98571.04;106820;1264;67909;-38
2023/07/01 05:42:20;;;;;;;10.50;5.30;;;;;;;20.90;68.02;98571.46;106744;1266;72670;-38
2023/07/01 05:44:47;;;;;;;6.60;5.10;;;;;;;20.97;68.20;98574.52;106716;1266;60130;-39
2023/07/01 05:47:15;;;;;;;9.70;5.00;;;;;;;21.01;67.66;98567.61;106729;1265;60042;-39
2023/07/01 05:49:42;;;;;;;6.00;5.20;;;;;;;21.11;67.62;98571.29;106751;1263;73054;-39
2023/07/01 05:52:10;;;;;;;6.70;4.80;;;;;;;21.20;67.46;98568.74;106774;1265;67788;-39
2023/07/01 05:54:38;;;;;;;8.30;5.10;;;;;;;21.34;67.46;98571.00;106602;1263;73072;-39
2023/07/01 05:57:19;;;;;;;7.70;5.50;;;;;;;21.50;67.12;98571.13;106792;1263;59566;-38
2023/07/01 05:59:51;;;;;;;5.40;4.50;;;;;;;21.64;66.36;98574.52;106699;1266;59305;-40
2023/07/01 06:02:19;;;;;;;6.20;4.80;;;;;;;21.72;65.72;98573.20;106682;1268;73071;-41
2023/07/01 06:04:46;;;;;;;5.80;5.00;;;;;;;21.81;65.73;98568.66;106686;1266;67931;-40
2023/07/01 06:07:14;;;;;;;6.30;4.70;;;;;;;21.89;65.79;98564.80;106598;1264;72798;-40
2023/07/01 06:09:48;;;;;;;6.40;4.60;;;;;;;21.96;64.20;98568.38;106619;1267;59496;-40
2023/07/01 06:12:16;;;;;;;7.20;4.70;;;;;;;22.04;63.55;98571.14;106655;1262;59668;-41
2023/07/01 06:14:44;;;;;;;5.60;4.90;;;;;;;22.15;63.64;98573.50;106730;1268;73414;-40
2023/07/01 06:17:11;;;;;;;7.10;5.00;;;;;;;22.26;63.16;98574.91;106765;1264;66323;-40
2023/07/01 06:19:39;;;;;;;6.30;4.80;;;;;;;22.34;62.82;98575.29;106715;1264;72760;-40
2023/07/01 06:22:06;;;;;;;5.40;4.70;;;;;;;22.39;62.27;98581.47;106645;1268;60075;-40
2023/07/01 06:24:34;;;;;;;6.10;5.00;;;;;;;22.42;62.24;98579.85;106586;1264;60017;-40
2023/07/01 06:27:03;;;;;;;8.30;4.90;;;;;;;22.47;62.55;98582.32;106589;1265;73068;-40
2023/07/01 06:29:31;;;;;;;6.50;4.70;;;;;;;22.54;62.59;98584.34;106605;1264;67609;-40
2023/07/01 06:31:59;;;;;;;7.50;4.70;;;;;;;22.60;62.17;98583.92;106831;1264;72666;-39
2023/07/01 06:34:27;;;;;;;6.90;4.30;;;;;;;22.70;61.41;98580.91;106740;1264;61721;-39
2023/07/01 06:36:54;;;;;;;7.70;4.90;;;;;;;22.81;60.87;98580.92;106630;1266;60052;-39
2023/07/01 06:39:22;;;;;;;7.20;5.30;;;;;;;22.89;61.88;98582.31;106549;1268;73060;-39
2023/07/01 06:41:49;;;;;;;5.70;5.10;;;;;;;22.97;62.05;98584.23;106645;1264;67771;-39
2023/07/01 06:44:17;;;;;;;9.80;5.90;;;;;;;23.02;61.66;98584.98;106653;1266;72739;-39
2023/07/01 06:46:45;;;;;;;7.40;5.10;;;;;;;23.06;61.99;98583.93;106687;1266;60571;-39
2023/07/01 06:49:13;;;;;;;6.10;5.00;;;;;;;23.08;61.88;98582.58;107538;1253;60060;-39
2023/07/01 06:51:42;;;;;;;6.90;4.80;;;;;;;23.10;60.14;98577.91;107535;1253;71775;-39
2023/07/01 06:54:10;;;;;;;5.60;5.10;;;;;;;23.15;60.79;98576.36;107575;1253;66329;-39
2023/07/01 06:56:38;;;;;;;10.20;4.70;;;;;;;23.19;60.34;98577.98;107581;1253;71462;-39
2023/07/01 06:59:06;;;;;;;4.80;4.30;;;;;;;23.24;59.77;98576.80;107520;1253;60428;-39
2023/07/01 07:01:33;;;;;;;8.20;4.40;;;;;;;23.32;59.11;98577.52;107545;1253;60024;-39
2023/07/01 07:04:01;;;;;;;4.70;3.60;;;;;;;23.44;58.85;98580.91;107550;1253;73123;-39
2023/07/01 07:06:29;;;;;;;7.00;4.10;;;;;;;23.53;58.25;98579.77;107601;1253;67944;-39
2023/07/01 07:08:56;;;;;;;5.20;4.00;;;;;;;23.60;58.40;98577.30;107581;1253;72611;-39
2023/07/01 07:11:24;;;;;;;6.10;3.60;;;;;;;23.68;57.69;98576.05;107564;1253;60076;-39
2023/07/01 07:13:52;;;;;;;6.60;4.10;;;;;;;23.76;56.93;98573.71;107578;1255;60056;-39
2023/07/01 07:16:19;;;;;;;5.10;4.10;;;;;;;23.83;56.20;98573.63;107564;1253;71812;-39
2023/07/01 07:18:51;;;;;;;5.60;3.90;;;;;;;23.89;55.53;98572.71;107589;1253;68073;-39
2023/07/01 07:21:19;;;;;;;7.40;3.80;;;;;;;23.96;56.31;98574.52;107673;1253;72682;-38
2023/07/01 07:23:47;;;;;;;8.10;4.20;;;;;;;24.02;56.64;98576.83;107561;1258;60154;-39
2023/07/01 07:26:14;;;;;;;8.80;4.50;;;;;;;24.08;55.49;98573.54;107574;1253;60097;-39
2023/07/01 07:28:42;;;;;;;6.10;4.30;;;;;;;24.13;55.84;98570.63;107557;1253;73048;-38
2023/07/01 07:31:10;;;;;;;6.00;4.30;;;;;;;24.17;56.74;98572.65;107551;1257;65736;-39
2023/07/01 07:33:37;;;;;;;4.90;4.10;;;;;;;24.20;56.79;98566.83;107564;1253;72125;-39
2023/07/01 07:36:05;;;;;;;7.40;4.00;;;;;;;24.25;57.77;98571.17;107591;1253;60187;-39
2023/07/01 07:38:32;;;;;;;6.00;4.10;;;;;;;24.32;56.78;98569.95;107596;1253;60275;-39
2023/07/01 07:41:00;;;;;;;6.80;4.30;;;;;;;24.37;57.05;98568.83;107569;1253;71763;-39
2023/07/01 07:43:28;;;;;;;6.70;3.70;;;;;;;24.42;56.44;98571.04;107542;1253;66977;-39
2023/07/01 07:45:58;;;;;;;4.80;3.70;;;;;;;24.47;56.28;98567.91;107361;1257;72725;-39
2023/07/01 07:48:26;;;;;;;5.00;3.90;;;;;;;24.55;55.86;98566.63;107438;1253;60552;-38
2023/07/01 07:50:54;;;;;;;6.00;3.60;;;;;;;24.66;55.56;98568.52;107448;1253;60368;-38
2023/07/01 07:53:23;;;;;;;4.50;3.60;;;;;;;24.75;54.95;98567.28;107388;1253;74294;-38
2023/07/01 07:55:50;;;;;;;4.90;3.50;;;;;;;24.81;54.48;98571.11;107511;1253;67605;-38
2023/07/01 07:58:18;;;;;;;8.20;3.40;;;;;;;24.85;54.20;98568.76;107547;1253;72673;-38
2023/07/01 08:00:45;;;;;;;6.20;3.40;;;;;;;24.87;53.23;98568.34;107597;1257;60449;-38
2023/07/01 08:03:14;;;;;;;4.80;2.70;;;;;;;24.87;50.30;98570.73;107638;1253;60265;-38
2023/07/01 08:05:42;;;;;;;3.30;2.80;;;;;;;24.86;49.95;98567.85;107587;1257;73857;-38
2023/07/01 08:08:11;;;;;;;5.30;2.80;;;;;;;24.89;49.14;98572.35;107602;1253;66680;-38
2023/07/01 08:10:43;;;;;;;5.00;2.70;;;;;;;24.96;49.10;98571.74;107546;1257;71770;-38
2023/07/01 08:13:13;;;;;;;4.60;2.60;;;;;;;25.05;48.61;98570.00;107573;1254;60987;-38
2023/07/01 08:15:41;;;;;;;4.20;2.90;;;;;;;25.13;48.47;98565.60;107622;1253;60315;-38
2023/07/01 08:18:09;;;;;;;4.80;2.90;;;;;;;25.22;48.62;98563.20;107599;1253;72612;-38
2023/07/01 08:20:38;;;;;;;3.00;2.30;;;;;;;25.32;48.00;98560.13;107601;1253;68079;-38
2023/07/01 08:23:05;;;;;;;4.20;2.70;;;;;;;25.39;48.02;98561.52;107564;1253;72657;-38
2023/07/01 08:25:33;;;;;;;5.10;2.90;;;;;;;25.45;46.92;98557.08;107619;1253;60346;-38
2023/07/01 08:28:00;;;;;;;3.00;2.50;;;;;;;25.54;47.64;98557.14;107632;1253;60431;-38
2023/07/01 08:30:28;;;;;;;2.70;2.40;;;;;;;25.65;46.38;98553.05;107608;1253;74151;-38
2023/07/01 08:32:56;;;;;;;5.50;2.40;;;;;;;25.76;44.51;98554.79;107574;1253;66177;-38
2023/07/01 08:35:23;;;;;;;4.80;2.60;;;;;;;25.86;45.26;98550.09;107609;1253;72729;-38
2023/07/01 08:37:51;;;;;;;3.60;2.20;;;;;;;25.99;45.36;98554.92;107587;1257;60316;-39
2023/07/01 08:40:18;;;;;;;5.20;2.50;;;;;;;26.07;45.39;98557.31;107586;1253;60272;-38
2023/07/01 08:43:00;;;;;;;4.10;2.30;;;;;;;26.12;45.70;98559.45;107605;1253;73837;-38
2023/07/01 08:45:27;;;;;;;3.60;2.80;;;;;;;26.18;44.82;98561.05;107615;1253;67756;-38
2023/07/01 08:47:56;;;;;;;3.40;2.40;;;;;;;26.23;44.34;98559.92;107365;1253;71456;-38
2023/07/01 08:50:24;;;;;;;6.00;2.50;;;;;;;26.29;43.90;98558.86;107579;1253;60415;-38
2023/07/01 08:52:53;;;;;;;5.20;2.60;;;;;;;26.34;44.01;98559.27;107418;1253;60493;-39
2023/07/01 08:55:21;;;;;;;3.20;2.50;;;;;;;26.39;43.37;98558.59;107625;1257;71945;-38
2023/07/01 08:57:48;;;;;;;4.00;2.40;;;;;;;26.47;43.46;98562.58;107381;1253;66289;-38
2023/07/01 09:00:16;;;;;;;3.10;2.50;;;;;;;26.59;43.53;98561.45;107565;1253;72691;-38
2023/07/01 09:02:44;;;;;;;3.20;2.50;;;;;;;26.68;43.06;98564.20;107625;1253;60526;-39
2023/07/01 09:05:12;;;;;;;8.00;2.80;;;;;;;26.71;43.36;98564.64;107593;1253;60502;-39
2023/07/01 09:07:42;;;;;;;4.40;2.40;;;;;;;26.70;42.78;98564.08;107614;1253;74743;-39
2023/07/01 09:10:13;;;;;;;5.50;2.40;;;;;;;26.68;43.33;98563.98;107602;1253;67887;-38
2023/07/01 09:12:40;;;;;;;4.60;2.30;;;;;;;26.73;43.00;98560.52;107609;1253;72690;-38
2023/07/01 09:15:09;;;;;;;3.80;2.60;;;;;;;26.76;42.99;98560.85;107531;1253;60272;-38
2023/07/01 09:17:38;;;;;;;2.90;2.30;;;;;;;26.82;43.41;98562.18;107576;1253;60348;-39
2023/07/01 09:20:08;;;;;;;4.90;2.20;;;;;;;26.90;42.92;98566.25;107663;1253;72675;-39
2023/07/01 09:22:36;;;;;;;;;;;;;;;26.97;42.02;98561.21;107564;1253;66867;-39
2023/07/01 09:25:04;;;;;;;4.20;2.60;;;;;;;26.96;41.43;98555.70;107666;1257;72721;-39
2023/07/01 09:27:39;;;;;;;4.00;2.30;;;;;;;26.94;41.24;98550.17;107489;1255;60408;-39
2023/07/01 09:30:36;;;;;;;3.10;2.30;;;;;;;26.98;40.94;98545.19;107374;1253;60531;-38
2023/07/01 09:33:15;;;;;;;2.60;2.30;;;;;;;27.03;41.07;98539.13;107428;1253;73835;-39
2023/07/01 09:35:44;;;;;;;5.60;2.50;;;;;;;27.10;41.63;98534.80;107581;1253;66443;-39
2023/07/01 09:38:13;;;;;;;4.40;2.70;;;;;;;27.17;40.83;98540.53;107548;1253;73315;-39
2023/07/01 09:40:40;;;;;;;3.10;2.60;;;;;;;27.17;41.55;98536.93;107551;1257;60738;-38
2023/07/01 09:43:10;;;;;;;3.30;2.50;;;;;;;27.10;41.77;98539.05;107579;1257;60395;-39
2023/07/01 09:45:52;;;;;;;2.50;2.20;;;;;;;26.96;41.51;98538.70;107263;1253;73917;-40
2023/07/01 09:48:21;;;;;;;3.60;2.70;;;;;;;26.82;42.12;98539.78;107452;1253;67738;-39
2023/07/01 09:50:49;;;;;;;3.50;2.80;;;;;;;26.77;42.44;98538.93;107424;1254;71456;-40
2023/07/01 09:53:21;;;;;;;3.00;2.70;;;;;;;26.83;42.88;98535.97;107561;1253;60418;-39
2023/07/01 09:55:49;;;;;;;2.90;2.60;;;;;;;26.92;42.10;98533.80;107545;1253;60412;-40
2023/07/01 09:58:17;;;;;;;5.50;2.90;;;;;;;26.97;42.64;98530.81;107488;1253;74294;-39
2023/07/01 10:00:45;;;;;;;4.10;2.90;;;;;;;27.02;42.58;98530.63;107464;1253;67913;-39
2023/07/01 10:03:12;;;;;;;3.00;2.50;;;;;;;27.06;41.65;98532.62;107514;1253;72696;-40
2023/07/01 10:05:43;;;;;;;4.70;2.80;;;;;;;27.04;41.89;98528.98;107248;1253;60461;-38
2023/07/01 10:08:10;;;;;;;3.80;2.70;;;;;;;27.00;41.78;98528.16;107446;1253;60245;-38
2023/07/01 10:10:38;;;;;;;4.10;2.90;;;;;;;26.95;42.37;98527.06;107421;1253;73844;-38
2023/07/01 10:13:06;;;;;;;5.90;2.80;;;;;;;26.96;42.77;98527.27;107288;1253;67619;-38
2023/07/01 10:15:33;;;;;;;4.90;2.80;;;;;;;26.94;41.42;98526.34;107590;1256;72719;-38
2023/07/01 10:18:01;;;;;;;8.20;3.00;;;;;;;26.89;42.40;98522.28;107576;1253;60473;-38
2023/07/01 10:20:31;;;;;;;3.90;2.80;;;;;;;26.84;42.23;98521.20;107456;1253;60410;-38
2023/07/01 10:22:59;;;;;;;3.70;3.00;;;;;;;26.81;42.80;98515.05;107553;1253;73871;-39
2023/07/01 10:25:38;;;;;;;4.70;2.80;;;;;;;26.78;43.53;98517.34;107627;1258;67614;-38
2023/07/01 10:28:06;;;;;;;4.40;2.70;;;;;;;26.74;43.20;98511.02;107598;1253;72685;-39
2023/07/01 10:30:46;;;;;;;5.10;2.80;;;;;;;26.69;42.70;98511.48;107396;1253;60589;-39
2023/07/01 10:33:39;;;;;;;3.40;2.80;;;;;;;26.65;43.38;98509.56;107361;1253;60017;-39
2023/07/01 10:36:07;;;;;;;3.80;2.80;;;;;;;26.63;43.70;98510.30;107392;1253;74266;-39
2023/07/01 10:38:36;;;;;;;3.60;2.80;;;;;;;26.64;43.71;98511.43;107576;1253;66746;-39
2023/07/01 10:41:04;;;;;;;3.40;3.00;;;;;;;26.71;43.30;98510.89;107593;1253;72676;-39
2023/07/01 10:43:38;;;;;;;4.60;3.00;;;;;;;26.77;42.99;98518.89;107512;1254;60277;-39
2023/07/01 10:46:12;;;;;;;4.70;3.20;;;;;;;26.79;42.45;98511.64;107497;1253;60300;-39
2023/07/01 10:49:06;;;;;;;4.60;2.90;;;;;;;26.79;43.52;98506.27;107502;1253;73872;-39
2023/07/01 10:51:43;;;;;;;3.50;3.10;;;;;;;26.75;43.08;98505.84;107395;1253;67821;-39
2023/07/01 10:54:11;;;;;;;4.30;3.20;;;;;;;26.71;42.88;98501.40;107474;1254;71782;-39
2023/07/01 10:56:39;;;;;;;5.20;3.00;;;;;;;26.69;44.11;98505.98;107507;1253;60538;-39
2023/07/01 10:59:26;;;;;;;4.20;2.80;;;;;;;26.67;44.04;98503.52;107632;1253;60314;-39
2023/07/01 11:02:01;;;;;;;4.20;3.00;;;;;;;26.62;43.70;98508.31;107577;1254;74205;-39
2023/07/01 11:04:54;;;;;;;3.70;3.10;;;;;;;26.60;42.82;98502.95;107629;1253;67994;-39
2023/07/01 11:07:26;;;;;;;5.10;2.90;;;;;;;26.66;42.51;98504.47;107557;1259;71468;-39
2023/07/01 11:09:54;;;;;;;8.30;2.90;;;;;;;26.69;42.30;98502.48;107546;1253;60300;-39
2023/07/01 11:12:23;;;;;;;5.20;2.80;;;;;;;26.75;42.52;98500.92;107487;1252;60333;-39
2023/07/01 11:14:51;;;;;;;5.00;3.10;;;;;;;26.90;43.60;98500.59;108035;1253;73691;-39
2023/07/01 11:17:20;;;;;;;3.40;2.60;;;;;;;27.09;42.73;98495.69;107626;1253;67630;-39
2023/07/01 11:19:55;;;;;;;5.80;3.00;;;;;;;27.26;40.63;98495.02;107618;1253;72724;-39
2023/07/01 11:22:22;;;;;;;3.90;3.20;;;;;;;27.40;42.17;98497.50;107611;1253;60419;-39
2023/07/01 11:24:50;;;;;;;4.00;2.50;;;;;;;27.49;40.65;98498.86;107589;1253;60910;-39
2023/07/01 11:27:21;;;;;;;4.10;2.90;;;;;;;27.56;40.55;98495.38;107586;1253;74332;-39
2023/07/01 11:29:48;;;;;;;5.70;3.20;;;;;;;27.60;41.19;98491.45;107585;1257;66836;-39
2023/07/01 11:32:17;;;;;;;3.50;3.00;;;;;;;27.65;41.15;98486.59;107587;1253;72689;-39
2023/07/01 11:34:47;;;;;;;3.30;2.80;;;;;;;27.71;40.29;98487.23;107602;1257;60425;-39
2023/07/01 11:37:24;;;;;;;10.30;2.90;;;;;;;27.78;39.91;98490.67;107442;1253;60507;-39